createdAt,value
2023-01-25T00:02:17.631Z,40.60
2023-01-25T00:04:46.519Z,37.70
2023-01-25T00:07:14.917Z,32.70
2023-01-25T00:09:43.419Z,39.00
2023-01-25T00:12:11.841Z,43.90
2023-01-25T00:14:40.595Z,48.20
2023-01-25T00:17:09.082Z,37.50
2023-01-25T00:19:38.122Z,42.30
2023-01-25T00:22:06.886Z,42.00
2023-01-25T00:24:38.679Z,41.40
2023-01-25T00:27:07.098Z,40.60
2023-01-25T00:29:35.712Z,49.60
2023-01-25T00:32:07.341Z,42.50
2023-01-25T00:34:45.335Z,43.80
2023-01-25T00:37:24.640Z,39.00
2023-01-25T00:39:55.642Z,36.10
2023-01-25T00:42:24.076Z,32.60
2023-01-25T00:44:52.539Z,32.40
2023-01-25T00:47:24.218Z,29.80
2023-01-25T00:49:52.754Z,31.70
2023-01-25T00:52:22.756Z,25.90
2023-01-25T00:54:51.244Z,30.70
2023-01-25T00:57:20.176Z,27.50
2023-01-25T00:59:48.667Z,33.40
2023-01-25T01:02:19.705Z,25.90
2023-01-25T01:04:48.610Z,34.00
2023-01-25T01:07:17.526Z,23.40
2023-01-25T01:09:46.954Z,26.30
2023-01-25T01:12:16.999Z,28.00
2023-01-25T01:14:45.394Z,25.00
2023-01-25T01:17:13.702Z,29.80
2023-01-25T01:19:41.965Z,27.90
2023-01-25T01:22:10.324Z,26.80
2023-01-25T01:24:39.195Z,24.70
2023-01-25T01:27:07.775Z,27.30
2023-01-25T01:29:36.563Z,25.20
2023-01-25T01:32:06.075Z,27.30
2023-01-25T01:34:35.346Z,33.90
2023-01-25T01:37:04.001Z,29.50
2023-01-25T01:39:32.361Z,28.80
2023-01-25T01:42:01.249Z,24.20
2023-01-25T01:44:50.008Z,30.80
2023-01-25T01:47:24.595Z,35.30
2023-01-25T01:50:07.054Z,27.50
2023-01-25T01:52:36.910Z,29.90
2023-01-25T01:55:12.802Z,28.80
2023-01-25T01:57:43.920Z,40.30
2023-01-25T02:00:13.027Z,30.90
2023-01-25T02:02:42.189Z,47.20
2023-01-25T02:05:14.961Z,37.50
2023-01-25T02:07:43.680Z,34.80
2023-01-25T02:10:12.513Z,36.90
2023-01-25T02:12:42.678Z,38.70
2023-01-25T02:15:11.570Z,34.60
2023-01-25T02:17:42.121Z,34.60
2023-01-25T02:20:22.432Z,36.90
2023-01-25T02:22:53.738Z,29.30
2023-01-25T02:25:22.124Z,34.50
2023-01-25T02:27:53.609Z,46.90
2023-01-25T02:30:22.272Z,41.10
2023-01-25T02:32:53.084Z,37.50
2023-01-25T02:35:36.553Z,39.00
2023-01-25T02:38:05.475Z,39.20
2023-01-25T02:40:36.931Z,44.40
2023-01-25T02:43:06.048Z,47.60
2023-01-25T02:45:35.539Z,34.70
2023-01-25T02:48:04.383Z,36.90
2023-01-25T02:50:33.283Z,38.90
2023-01-25T02:53:01.719Z,34.10
2023-01-25T02:55:30.401Z,31.30
2023-01-25T02:57:58.679Z,26.90
2023-01-25T03:00:27.272Z,26.00
2023-01-25T03:02:55.720Z,32.40
2023-01-25T03:05:25.159Z,27.20
2023-01-25T03:07:53.973Z,31.40
2023-01-25T03:10:23.442Z,26.60
2023-01-25T03:12:51.959Z,28.40
2023-01-25T03:15:20.348Z,27.80
2023-01-25T03:17:48.958Z,24.40
2023-01-25T03:20:18.959Z,27.30
2023-01-25T03:22:48.199Z,28.80
2023-01-25T03:25:16.648Z,30.70
2023-01-25T03:27:56.601Z,29.30
2023-01-25T03:30:25.542Z,32.90
2023-01-25T03:32:54.773Z,25.70
2023-01-25T03:35:23.405Z,29.50
2023-01-25T03:37:53.508Z,33.10
2023-01-25T03:40:21.972Z,29.80
2023-01-25T03:42:52.474Z,28.10
2023-01-25T03:45:20.912Z,26.90
2023-01-25T03:47:50.490Z,27.30
2023-01-25T03:50:20.088Z,27.30
2023-01-25T03:52:52.813Z,27.70
2023-01-25T03:55:21.530Z,26.20
2023-01-25T03:57:52.462Z,26.80
2023-01-25T04:00:22.088Z,25.60
2023-01-25T04:02:50.920Z,28.10
2023-01-25T04:05:20.747Z,28.80
2023-01-25T04:07:49.528Z,27.10
2023-01-25T04:10:20.673Z,31.10
2023-01-25T04:12:50.084Z,27.10
2023-01-25T04:15:20.992Z,25.90
2023-01-25T04:17:49.789Z,30.60
2023-01-25T04:20:23.549Z,29.10
2023-01-25T04:22:52.495Z,28.90
2023-01-25T04:25:21.489Z,23.40
2023-01-25T04:27:54.474Z,29.30
2023-01-25T04:30:23.235Z,25.30
2023-01-25T04:32:52.124Z,27.30
2023-01-25T04:35:24.992Z,26.50
2023-01-25T04:37:56.609Z,25.40
2023-01-25T04:40:26.949Z,25.80
2023-01-25T04:42:55.534Z,28.20
2023-01-25T04:45:25.747Z,25.50
2023-01-25T04:47:58.641Z,22.20
2023-01-25T04:50:27.528Z,24.60
2023-01-25T04:52:56.208Z,23.80
2023-01-25T04:55:24.763Z,35.10
2023-01-25T04:57:53.880Z,25.00
2023-01-25T05:00:22.407Z,29.30
2023-01-25T05:02:51.483Z,24.30
2023-01-25T05:05:19.952Z,29.00
2023-01-25T05:07:48.472Z,24.90
2023-01-25T05:10:17.179Z,34.00
2023-01-25T05:13:02.822Z,25.90
2023-01-25T05:15:32.371Z,30.00
2023-01-25T05:18:01.162Z,36.20
2023-01-25T05:20:29.963Z,27.40
2023-01-25T05:22:58.841Z,29.90
2023-01-25T05:25:46.919Z,40.90
2023-01-25T05:28:16.047Z,33.40
2023-01-25T05:31:15.638Z,34.90
2023-01-25T05:33:44.600Z,36.40
2023-01-25T05:36:12.955Z,38.40
2023-01-25T05:38:42.607Z,36.40
2023-01-25T05:41:12.012Z,31.10
2023-01-25T05:43:40.493Z,28.20
2023-01-25T05:46:12.661Z,32.20
2023-01-25T05:48:41.131Z,27.80
2023-01-25T05:51:10.478Z,29.80
2023-01-25T05:53:39.268Z,32.20
2023-01-25T05:56:08.786Z,33.10
2023-01-25T05:58:37.977Z,33.30
2023-01-25T06:01:07.698Z,29.70
2023-01-25T06:03:42.035Z,32.60
2023-01-25T06:06:10.801Z,32.00
2023-01-25T06:08:39.337Z,31.80
2023-01-25T06:11:11.332Z,51.60
2023-01-25T06:13:45.281Z,28.00
2023-01-25T06:16:13.876Z,36.10
2023-01-25T06:19:00.158Z,31.00
2023-01-25T06:21:47.257Z,30.30
2023-01-25T06:24:16.053Z,30.40
2023-01-25T06:26:44.637Z,30.60
2023-01-25T06:29:13.176Z,28.20
2023-01-25T06:31:41.878Z,32.70
2023-01-25T06:34:11.148Z,30.40
2023-01-25T06:36:39.865Z,28.80
2023-01-25T06:39:08.339Z,36.60
2023-01-25T06:41:37.816Z,38.00
2023-01-25T06:44:06.347Z,28.40
2023-01-25T06:46:35.487Z,31.20
2023-01-25T06:49:04.281Z,31.60
2023-01-25T06:51:33.113Z,38.30
2023-01-25T06:54:02.945Z,52.80
2023-01-25T06:56:33.211Z,49.50
2023-01-25T06:59:02.224Z,49.50
2023-01-25T07:01:31.187Z,55.30
2023-01-25T07:03:59.665Z,60.70
2023-01-25T07:06:33.471Z,46.90
2023-01-25T07:09:07.508Z,47.60
2023-01-25T07:11:36.407Z,36.20
2023-01-25T07:14:04.886Z,38.90
2023-01-25T07:16:37.255Z,39.50
2023-01-25T07:19:06.834Z,43.90
2023-01-25T07:21:35.777Z,37.30
2023-01-25T07:24:04.850Z,29.70
2023-01-25T07:26:33.766Z,26.10
2023-01-25T07:29:02.308Z,25.60
2023-01-25T07:31:31.048Z,29.30
2023-01-25T07:33:59.367Z,39.90
2023-01-25T07:36:27.944Z,29.60
2023-01-25T07:38:58.366Z,32.50
2023-01-25T07:41:26.810Z,30.70
2023-01-25T07:43:55.136Z,31.40
2023-01-25T07:46:40.209Z,25.10
2023-01-25T07:49:08.641Z,24.80
2023-01-25T07:51:37.526Z,34.40
2023-01-25T07:54:06.153Z,35.80
2023-01-25T07:56:36.760Z,31.50
2023-01-25T07:59:08.699Z,30.30
2023-01-25T08:01:37.527Z,28.40
2023-01-25T08:04:06.241Z,30.10
2023-01-25T08:06:39.190Z,24.90
2023-01-25T08:09:13.372Z,21.50
2023-01-25T08:11:42.440Z,22.20
2023-01-25T08:14:11.634Z,23.00
2023-01-25T08:16:40.392Z,29.70
2023-01-25T08:19:10.528Z,24.30
2023-01-25T08:21:38.979Z,23.90
2023-01-25T08:24:07.554Z,31.60
2023-01-25T08:26:36.353Z,27.70
2023-01-25T08:29:07.118Z,33.80
2023-01-25T08:31:36.103Z,26.60
2023-01-25T08:34:04.949Z,32.30
2023-01-25T08:36:34.395Z,31.00
2023-01-25T08:39:07.651Z,27.40
2023-01-25T08:44:05.933Z,24.30
2023-01-25T08:46:35.304Z,43.20
2023-01-25T08:49:04.005Z,28.20
2023-01-25T08:51:33.669Z,30.40
2023-01-25T08:54:11.353Z,32.20
2023-01-25T08:56:40.693Z,44.90
2023-01-25T08:59:11.921Z,52.10
2023-01-25T09:01:40.586Z,46.00
2023-01-25T09:04:09.610Z,37.30
2023-01-25T09:06:40.530Z,40.80
2023-01-25T09:09:08.963Z,49.00
2023-01-25T09:11:38.406Z,43.80
2023-01-25T09:14:06.850Z,38.40
2023-01-25T09:16:35.679Z,40.50
2023-01-25T09:19:04.542Z,37.00
2023-01-25T09:21:33.307Z,30.80
2023-01-25T09:24:07.054Z,29.40
2023-01-25T09:26:38.813Z,38.80
2023-01-25T09:30:21.926Z,98.90
2023-01-25T09:32:55.313Z,96.20
2023-01-25T09:35:24.232Z,75.40
2023-01-25T09:37:52.886Z,31.90
2023-01-25T09:40:25.969Z,41.00
2023-01-25T09:43:03.640Z,36.10
2023-01-25T09:45:36.781Z,192.20
2023-01-25T09:48:14.376Z,51.90
2023-01-25T09:55:35.292Z,30.70
2023-01-25T09:58:04.423Z,26.30
2023-01-25T10:00:39.043Z,23.10
2023-01-25T10:03:23.576Z,21.60
2023-01-25T10:05:57.988Z,28.50
2023-01-25T10:08:44.701Z,20.50
2023-01-25T10:11:31.071Z,19.70
2023-01-25T10:13:59.638Z,22.70
2023-01-25T10:16:39.549Z,19.00
2023-01-25T10:19:15.154Z,24.20
2023-01-25T10:22:05.845Z,25.00
2023-01-25T10:24:35.375Z,23.10
2023-01-25T10:27:24.600Z,32.90
2023-01-25T10:29:53.283Z,25.40
2023-01-25T10:32:24.843Z,23.50
2023-01-25T10:35:08.751Z,27.40
2023-01-25T10:37:39.469Z,32.00
2023-01-25T10:40:24.324Z,27.70
2023-01-25T10:42:56.675Z,27.10
2023-01-25T10:45:27.021Z,28.40
2023-01-25T10:47:58.210Z,20.40
2023-01-25T10:50:42.616Z,19.20
2023-01-25T10:53:34.167Z,18.80
2023-01-25T10:56:06.477Z,17.20
2023-01-25T10:58:46.449Z,18.30
2023-01-25T11:01:41.041Z,18.30
2023-01-25T11:04:35.459Z,13.70
2023-01-25T11:07:06.327Z,17.20
2023-01-25T11:09:36.970Z,17.50
2023-01-25T11:12:11.829Z,20.00
2023-01-25T11:14:40.306Z,21.30
2023-01-25T11:17:38.269Z,16.90
2023-01-25T11:20:18.796Z,24.20
2023-01-25T11:22:55.254Z,25.30
2023-01-25T11:25:34.168Z,23.10
2023-01-25T11:28:16.240Z,21.60
2023-01-25T11:30:45.381Z,23.20
2023-01-25T11:33:14.966Z,16.50
2023-01-25T11:36:08.964Z,18.20
2023-01-25T11:38:37.976Z,12.90
2023-01-25T11:41:17.242Z,14.00
2023-01-25T11:43:54.247Z,16.00
2023-01-25T11:47:02.041Z,17.90
2023-01-25T11:49:57.994Z,22.80
2023-01-25T11:52:40.237Z,23.70
2023-01-25T11:55:18.013Z,16.80
2023-01-25T11:58:11.249Z,14.70
2023-01-25T12:00:45.515Z,12.00
2023-01-25T12:03:27.202Z,14.60
2023-01-25T12:06:07.988Z,24.90
2023-01-25T12:08:36.569Z,18.30
2023-01-25T12:11:40.327Z,12.90
2023-01-25T12:14:37.178Z,22.00
2023-01-25T12:17:28.528Z,17.20
2023-01-25T12:20:04.462Z,13.00
2023-01-25T12:22:52.284Z,18.00
2023-01-25T12:25:31.864Z,18.50
2023-01-25T12:28:19.747Z,20.70
2023-01-25T12:31:19.668Z,31.90
2023-01-25T12:33:56.567Z,27.40
2023-01-25T12:36:34.326Z,18.00
2023-01-25T12:39:09.925Z,16.60
2023-01-25T12:41:59.037Z,27.00
2023-01-25T12:44:31.628Z,18.00
2023-01-25T12:47:08.197Z,16.10
2023-01-25T12:49:47.380Z,16.10
2023-01-25T12:52:21.235Z,28.50
2023-01-25T12:54:49.879Z,17.40
2023-01-25T12:57:51.580Z,14.40
2023-01-25T13:00:41.568Z,18.80
2023-01-25T13:03:18.111Z,19.80
2023-01-25T13:05:46.608Z,14.80
2023-01-25T13:08:48.917Z,16.60
2023-01-25T13:11:23.992Z,12.10
2023-01-25T13:13:53.288Z,15.20
2023-01-25T13:16:31.109Z,12.10
2023-01-25T13:18:59.821Z,20.90
2023-01-25T13:21:38.519Z,26.40
2023-01-25T13:24:18.593Z,30.90
2023-01-25T13:26:54.274Z,13.60
2023-01-25T13:29:32.525Z,13.20
2023-01-25T13:32:01.320Z,26.40
2023-01-25T13:34:39.613Z,27.90
2023-01-25T13:37:24.623Z,23.20
2023-01-25T13:39:55.000Z,28.60
2023-01-25T13:42:29.975Z,25.00
2023-01-25T13:45:04.547Z,20.50
2023-01-25T13:47:43.268Z,18.10
2023-01-25T13:50:14.876Z,25.20
2023-01-25T13:53:00.191Z,13.40
2023-01-25T13:55:29.981Z,14.80
2023-01-25T13:58:16.959Z,19.80
2023-01-25T14:01:19.358Z,13.60
2023-01-25T14:03:52.836Z,20.30
2023-01-25T14:06:24.460Z,21.50
2023-01-25T14:08:53.955Z,11.50
2023-01-25T14:11:30.834Z,14.40
2023-01-25T14:14:03.373Z,16.70
2023-01-25T14:16:32.198Z,17.80
2023-01-25T14:19:24.023Z,22.90
2023-01-25T14:22:31.712Z,31.80
2023-01-25T14:25:17.359Z,25.10
2023-01-25T14:27:53.583Z,13.50
2023-01-25T14:30:32.738Z,19.00
2023-01-25T14:33:31.344Z,24.10
2023-01-25T14:36:16.275Z,20.60
2023-01-25T14:38:52.568Z,21.30
2023-01-25T14:41:29.176Z,21.80
2023-01-25T14:43:59.543Z,16.70
2023-01-25T14:46:35.355Z,28.60
2023-01-25T14:49:26.567Z,21.70
2023-01-25T14:52:05.617Z,23.60
2023-01-25T14:54:37.135Z,31.50
2023-01-25T14:57:07.671Z,32.50
2023-01-25T14:59:37.627Z,30.80
2023-01-25T15:02:39.921Z,29.60
2023-01-25T15:05:20.845Z,31.30
2023-01-25T15:07:50.858Z,32.00
2023-01-25T15:10:27.408Z,35.70
2023-01-25T15:13:07.652Z,60.70
2023-01-25T15:15:58.018Z,62.50
2023-01-25T15:18:48.494Z,51.20
2023-01-25T15:21:21.736Z,45.60
2023-01-25T15:23:50.432Z,37.00
2023-01-25T15:26:23.019Z,42.80
2023-01-25T15:28:55.732Z,36.00
2023-01-25T15:31:25.921Z,42.10
2023-01-25T15:33:55.466Z,40.10
2023-01-25T15:36:24.200Z,41.70
2023-01-25T15:38:52.749Z,39.10
2023-01-25T15:41:24.485Z,43.40
2023-01-25T15:43:53.660Z,173.90
2023-01-25T15:46:23.401Z,322.20
2023-01-25T15:48:52.673Z,415.00
2023-01-25T15:51:21.199Z,252.00
2023-01-25T15:53:49.553Z,387.00
2023-01-25T15:56:49.311Z,377.50
2023-01-25T15:59:18.286Z,299.60
2023-01-25T16:01:46.796Z,178.20
2023-01-25T16:04:17.168Z,330.20
2023-01-25T16:06:50.383Z,264.40
2023-01-25T16:09:20.212Z,168.90
2023-01-25T16:11:51.528Z,133.00
2023-01-25T16:14:20.254Z,62.70
2023-01-25T16:16:49.672Z,53.00
2023-01-25T16:19:19.857Z,85.70
2023-01-25T16:21:51.471Z,135.60
2023-01-25T16:24:19.945Z,214.00
2023-01-25T16:26:52.821Z,172.10
2023-01-25T16:29:23.227Z,132.10
2023-01-25T16:31:52.305Z,62.80
2023-01-25T16:34:22.281Z,44.30
2023-01-25T16:36:54.356Z,41.20
2023-01-25T16:39:24.368Z,44.40
2023-01-25T16:41:52.814Z,42.70
2023-01-25T16:44:22.839Z,44.40
2023-01-25T16:46:52.452Z,37.40
2023-01-25T16:49:23.107Z,34.90
2023-01-25T16:51:52.567Z,36.80
2023-01-25T16:54:21.458Z,34.80
2023-01-25T16:56:50.254Z,38.70
2023-01-25T16:59:18.735Z,31.40
2023-01-25T17:01:47.470Z,43.00
2023-01-25T17:04:16.208Z,38.40
2023-01-25T17:06:46.640Z,36.30
2023-01-25T17:09:24.501Z,31.00
2023-01-25T17:11:54.769Z,36.30
2023-01-25T17:14:23.540Z,39.10
2023-01-25T17:16:55.830Z,44.10
2023-01-25T17:19:25.333Z,37.10
2023-01-25T17:21:53.732Z,33.90
2023-01-25T17:24:22.487Z,33.80
2023-01-25T17:26:51.373Z,36.80
2023-01-25T17:29:19.907Z,37.80
2023-01-25T17:31:48.698Z,39.10
2023-01-25T17:34:22.217Z,35.60
2023-01-25T17:36:52.822Z,48.70
2023-01-25T17:39:21.382Z,32.80
2023-01-25T17:41:50.530Z,37.10
2023-01-25T17:44:23.033Z,30.40
2023-01-25T17:46:51.922Z,35.70
2023-01-25T17:49:22.748Z,34.30
2023-01-25T17:51:51.584Z,34.60
2023-01-25T17:54:21.943Z,36.10
2023-01-25T17:56:50.308Z,38.40
2023-01-25T17:59:19.427Z,33.40
2023-01-25T18:01:49.468Z,36.90
2023-01-25T18:04:18.331Z,44.30
2023-01-25T18:06:49.750Z,35.40
2023-01-25T18:09:19.266Z,41.70
2023-01-25T18:11:48.351Z,39.40
2023-01-25T18:14:17.160Z,38.50
2023-01-25T18:16:46.230Z,40.70
2023-01-25T18:19:14.899Z,42.60
2023-01-25T18:21:43.977Z,48.00
2023-01-25T18:24:34.493Z,48.20
2023-01-25T18:27:23.398Z,48.50
2023-01-25T18:30:26.422Z,51.90
2023-01-25T18:32:54.924Z,53.40
2023-01-25T18:35:25.339Z,51.90
2023-01-25T18:37:56.098Z,53.10
2023-01-25T18:40:25.087Z,61.90
2023-01-25T18:42:56.582Z,71.60
2023-01-25T18:45:26.091Z,68.80
2023-01-25T18:47:54.591Z,81.60
2023-01-25T18:50:24.004Z,76.10
2023-01-25T18:52:54.538Z,75.90
2023-01-25T18:55:23.335Z,86.10
2023-01-25T18:57:51.787Z,85.30
2023-01-25T19:00:20.593Z,88.00
2023-01-25T19:02:49.150Z,84.10
2023-01-25T19:05:20.117Z,96.60
2023-01-25T19:07:48.704Z,90.60
2023-01-25T19:10:17.957Z,109.90
2023-01-25T19:12:46.622Z,115.00
2023-01-25T19:15:15.429Z,113.90
2023-01-25T19:17:44.466Z,114.40
2023-01-25T19:20:14.208Z,101.80
2023-01-25T19:22:42.485Z,102.00
2023-01-25T19:25:11.179Z,100.00
2023-01-25T19:27:40.588Z,107.80
2023-01-25T19:30:10.144Z,115.30
2023-01-25T19:32:38.904Z,108.80
2023-01-25T19:35:08.306Z,106.50
2023-01-25T19:37:37.052Z,121.50
2023-01-25T19:40:09.313Z,137.70
2023-01-25T19:42:38.498Z,127.80
2023-01-25T19:45:08.072Z,148.40
2023-01-25T19:47:37.117Z,142.50
2023-01-25T19:50:06.819Z,169.00
2023-01-25T19:52:36.620Z,151.00
2023-01-25T19:55:06.419Z,149.90
2023-01-25T19:57:35.579Z,150.70
2023-01-25T20:00:07.407Z,152.00
2023-01-25T20:02:36.854Z,158.80
2023-01-25T20:05:09.121Z,142.40
2023-01-25T20:07:38.257Z,154.10
2023-01-25T20:10:07.627Z,138.80
2023-01-25T20:12:37.793Z,126.70
2023-01-25T20:15:08.295Z,124.00
2023-01-25T20:17:38.697Z,126.70
2023-01-25T20:20:08.006Z,124.80
2023-01-25T20:22:36.927Z,115.50
2023-01-25T20:25:05.586Z,111.30
2023-01-25T20:27:34.083Z,115.20
2023-01-25T20:30:02.864Z,112.90
2023-01-25T20:32:33.511Z,113.10
2023-01-25T20:35:06.288Z,112.30
2023-01-25T20:37:34.983Z,127.00
2023-01-25T20:40:04.003Z,116.90
2023-01-25T20:42:32.798Z,111.20
2023-01-25T20:45:01.180Z,102.80
2023-01-25T20:47:29.865Z,107.10
2023-01-25T20:49:58.235Z,110.80
2023-01-25T20:52:26.826Z,101.90
2023-01-25T20:54:55.590Z,108.10
2023-01-25T20:57:24.234Z,104.20
2023-01-25T20:59:52.778Z,109.20
2023-01-25T21:02:21.306Z,102.00
2023-01-25T21:04:49.796Z,107.90
2023-01-25T21:07:18.177Z,116.50
2023-01-25T21:09:47.047Z,114.50
2023-01-25T21:12:16.225Z,109.00
2023-01-25T21:14:45.115Z,108.90
2023-01-25T21:17:14.602Z,108.90
2023-01-25T21:19:43.193Z,121.90
2023-01-25T21:22:12.257Z,116.70
2023-01-25T21:24:41.104Z,122.50
2023-01-25T21:27:10.194Z,110.00
2023-01-25T21:29:38.972Z,122.70
2023-01-25T21:32:07.921Z,136.80
2023-01-25T21:34:37.255Z,137.70
2023-01-25T21:37:05.551Z,145.80
2023-01-25T21:39:34.346Z,151.00
2023-01-25T21:42:03.517Z,142.50
2023-01-25T21:44:51.554Z,156.40
2023-01-25T21:47:29.810Z,152.00
2023-01-25T21:50:18.015Z,151.40
2023-01-25T21:52:46.818Z,142.80
2023-01-25T21:55:15.480Z,135.60
2023-01-25T21:57:47.461Z,131.50
2023-01-25T22:00:16.859Z,143.80
2023-01-25T22:02:45.921Z,143.20
2023-01-25T22:05:14.636Z,145.60
2023-01-25T22:07:43.662Z,145.30
2023-01-25T22:10:12.672Z,132.60
2023-01-25T22:12:42.136Z,131.90
2023-01-25T22:15:11.828Z,121.50
2023-01-25T22:17:41.341Z,116.30
2023-01-25T22:20:11.355Z,113.60
2023-01-25T22:22:40.241Z,123.10
2023-01-25T22:25:09.847Z,117.60
2023-01-25T22:27:52.357Z,105.60
2023-01-25T22:30:20.943Z,118.40
2023-01-25T22:32:49.851Z,114.20
2023-01-25T22:35:18.650Z,119.20
2023-01-25T22:37:47.711Z,119.60
2023-01-25T22:40:16.909Z,114.90
2023-01-25T22:42:45.400Z,99.60
2023-01-25T22:45:13.978Z,113.80
2023-01-25T22:47:43.805Z,106.20
2023-01-25T22:50:12.516Z,113.30
2023-01-25T22:52:41.264Z,115.00
2023-01-25T22:55:11.386Z,113.10
2023-01-25T22:57:40.065Z,125.10
2023-01-25T23:00:10.024Z,107.30
2023-01-25T23:02:40.308Z,108.10
2023-01-25T23:05:08.893Z,126.00
2023-01-25T23:07:37.497Z,137.20
2023-01-25T23:10:06.798Z,133.10
2023-01-25T23:12:35.889Z,137.90
2023-01-25T23:15:15.715Z,129.70
2023-01-25T23:18:03.130Z,117.00
2023-01-25T23:20:31.658Z,122.70
2023-01-25T23:23:00.751Z,120.80
2023-01-25T23:25:30.082Z,113.40
2023-01-25T23:27:58.470Z,117.90
2023-01-25T23:30:27.211Z,119.40
2023-01-25T23:32:55.681Z,108.90
2023-01-25T23:35:25.239Z,105.00
2023-01-25T23:37:53.749Z,105.50
2023-01-25T23:40:22.157Z,95.50
2023-01-25T23:42:51.326Z,103.60
2023-01-25T23:45:26.135Z,101.40
2023-01-25T23:47:55.048Z,96.60
2023-01-25T23:50:23.435Z,94.90
2023-01-25T23:52:52.486Z,102.60
2023-01-25T23:55:20.845Z,99.10
2023-01-25T23:57:49.336Z,92.00
